createdAt,value
2019-03-01T00:00:15.436Z,1006.34
2019-03-01T00:01:15.409Z,1006.32
2019-03-01T00:02:15.432Z,1006.31
2019-03-01T00:03:15.401Z,1006.34
2019-03-01T00:04:15.369Z,1006.32
2019-03-01T00:05:15.370Z,1006.37
2019-03-01T00:06:15.341Z,1006.31
2019-03-01T00:07:15.358Z,1006.28
2019-03-01T00:08:15.328Z,1006.28
2019-03-01T00:09:15.304Z,1006.28
2019-03-01T00:10:15.300Z,1006.28
2019-03-01T00:11:15.288Z,1006.26
2019-03-01T00:12:15.282Z,1006.29
2019-03-01T00:13:15.309Z,1006.32
2019-03-01T00:14:15.258Z,1006.27
2019-03-01T00:15:15.242Z,1006.27
2019-03-01T00:16:15.228Z,1006.32
2019-03-01T00:17:15.227Z,1006.31
2019-03-01T00:18:15.218Z,1006.35
2019-03-01T00:19:15.229Z,1006.34
2019-03-01T00:20:15.189Z,1006.38
2019-03-01T00:21:15.177Z,1006.33
2019-03-01T00:22:15.168Z,1006.35
2019-03-01T00:23:15.206Z,1006.35
2019-03-01T00:24:15.156Z,1006.35
2019-03-01T00:25:15.176Z,1006.36
2019-03-01T00:26:15.118Z,1006.37
2019-03-01T00:27:15.111Z,1006.32
2019-03-01T00:28:15.098Z,1006.36
2019-03-01T00:29:15.092Z,1006.36
2019-03-01T00:30:15.134Z,1006.34
2019-03-01T00:31:15.070Z,1006.30
2019-03-01T00:32:15.060Z,1006.33
2019-03-01T00:33:15.051Z,1006.32
2019-03-01T00:34:15.031Z,1006.32
2019-03-01T00:35:15.050Z,1006.30
2019-03-01T00:36:15.019Z,1006.33
2019-03-01T00:37:15.010Z,1006.24
2019-03-01T00:38:14.987Z,1006.22
2019-03-01T00:39:14.992Z,1006.26
2019-03-01T00:40:15.001Z,1006.24
2019-03-01T00:41:14.967Z,1006.25
2019-03-01T00:42:14.954Z,1006.24
2019-03-01T00:43:14.950Z,1006.25
2019-03-01T00:44:14.929Z,1006.19
2019-03-01T00:45:14.921Z,1006.19
2019-03-01T00:46:14.945Z,1006.16
2019-03-01T00:47:14.907Z,1006.13
2019-03-01T00:48:14.886Z,1006.14
2019-03-01T00:49:14.876Z,1006.11
2019-03-01T00:50:14.867Z,1006.11
2019-03-01T00:51:14.910Z,1006.11
2019-03-01T00:52:14.842Z,1006.09
2019-03-01T00:53:14.826Z,1006.02
2019-03-01T00:54:14.833Z,1006.04
2019-03-01T00:55:14.832Z,1006.04
2019-03-01T00:56:14.881Z,1006.08
2019-03-01T00:57:14.794Z,1006.04
2019-03-01T00:58:14.791Z,1006.03
2019-03-01T00:59:14.796Z,1006.07
2019-03-01T01:00:14.790Z,1006.08
2019-03-01T01:01:14.788Z,1006.06
2019-03-01T01:02:14.740Z,1006.06
2019-03-01T01:03:14.722Z,1006.06
2019-03-01T01:04:14.719Z,1006.10
2019-03-01T01:05:14.741Z,1006.09
2019-03-01T01:06:14.728Z,1006.04
2019-03-01T01:07:14.716Z,1006.03
2019-03-01T01:08:14.781Z,1006.04
2019-03-01T01:09:14.795Z,1006.06
2019-03-01T01:10:14.748Z,1006.06
2019-03-01T01:11:14.654Z,1006.03
2019-03-01T01:12:14.681Z,1006.04
2019-03-01T01:13:14.610Z,1006.04
2019-03-01T01:14:14.611Z,1006.06
2019-03-01T01:15:14.597Z,1006.01
2019-03-01T01:16:14.591Z,1006.01
2019-03-01T01:17:14.599Z,1005.97
2019-03-01T01:18:14.557Z,1005.96
2019-03-01T01:19:14.549Z,1005.99
2019-03-01T01:20:14.558Z,1005.97
2019-03-01T01:21:14.529Z,1006.00
2019-03-01T01:22:14.552Z,1006.01
2019-03-01T01:23:14.514Z,1005.92
2019-03-01T01:24:14.503Z,1005.96
2019-03-01T01:25:14.479Z,1006.00
2019-03-01T01:26:14.492Z,1006.01
2019-03-01T01:27:14.543Z,1006.02
2019-03-01T01:28:14.469Z,1005.96
2019-03-01T01:29:14.451Z,1005.97
2019-03-01T01:30:14.447Z,1005.97
2019-03-01T01:31:14.427Z,1005.95
2019-03-01T01:32:14.409Z,1005.95
2019-03-01T01:33:14.445Z,1005.93
2019-03-01T01:34:14.428Z,1005.91
2019-03-01T01:35:14.388Z,1005.91
2019-03-01T01:36:14.368Z,1005.82
2019-03-01T01:37:14.358Z,1005.80
2019-03-01T01:38:14.379Z,1005.80
2019-03-01T01:39:14.339Z,1005.79
2019-03-01T01:40:14.383Z,1005.78
2019-03-01T01:41:14.317Z,1005.77
2019-03-01T01:42:14.344Z,1005.69
2019-03-01T01:43:14.285Z,1005.66
2019-03-01T01:44:14.283Z,1005.60
2019-03-01T01:45:14.305Z,1005.61
2019-03-01T01:46:14.261Z,1005.61
2019-03-01T01:47:14.304Z,1005.61
2019-03-01T01:48:14.238Z,1005.58
2019-03-01T01:49:14.231Z,1005.54
2019-03-01T01:50:14.216Z,1005.46
2019-03-01T01:51:14.202Z,1005.37
2019-03-01T01:52:14.240Z,1005.32
2019-03-01T01:53:14.184Z,1005.27
2019-03-01T01:54:14.174Z,1005.28
2019-03-01T01:55:14.164Z,1005.22
2019-03-01T01:56:14.162Z,1005.20
2019-03-01T01:57:14.139Z,1005.19
2019-03-01T01:58:14.154Z,1005.23
2019-03-01T01:59:14.121Z,1005.19
2019-03-01T02:00:14.112Z,1005.20
2019-03-01T02:01:14.107Z,1005.21
2019-03-01T02:02:14.115Z,1005.28
2019-03-01T02:03:14.065Z,1005.24
2019-03-01T02:04:14.063Z,1005.20
2019-03-01T02:05:14.048Z,1005.22
2019-03-01T02:06:14.045Z,1005.20
2019-03-01T02:07:14.071Z,1005.18
2019-03-01T02:08:14.030Z,1005.20
2019-03-01T02:09:14.013Z,1005.18
2019-03-01T02:10:14.004Z,1005.19
2019-03-01T02:11:13.983Z,1005.21
2019-03-01T02:12:13.981Z,1005.17
2019-03-01T02:13:14.022Z,1005.16
2019-03-01T02:14:13.951Z,1005.15
2019-03-01T02:15:13.940Z,1005.19
2019-03-01T02:16:13.939Z,1005.19
2019-03-01T02:17:14.014Z,1005.17
2019-03-01T02:18:13.964Z,1005.21
2019-03-01T02:19:13.912Z,1005.23
2019-03-01T02:20:13.984Z,1005.15
2019-03-01T02:21:13.881Z,1005.14
2019-03-01T02:22:13.869Z,1005.16
2019-03-01T02:23:13.859Z,1005.12
2019-03-01T02:24:13.895Z,1005.16
2019-03-01T02:25:13.838Z,1005.14
2019-03-01T02:26:13.918Z,1005.10
2019-03-01T02:27:13.821Z,1005.12
2019-03-01T02:28:13.879Z,1005.10
2019-03-01T02:29:13.862Z,1005.11
2019-03-01T02:30:13.810Z,1005.11
2019-03-01T02:31:13.783Z,1005.10
2019-03-01T02:32:13.770Z,1005.05
2019-03-01T02:33:13.801Z,1005.08
2019-03-01T02:34:13.780Z,1005.06
2019-03-01T02:35:13.728Z,1005.05
2019-03-01T02:36:13.716Z,1004.98
2019-03-01T02:37:13.717Z,1005.00
2019-03-01T02:38:13.753Z,1005.08
2019-03-01T02:39:13.696Z,1005.09
2019-03-01T02:40:13.706Z,1005.17
2019-03-01T02:41:13.668Z,1005.12
2019-03-01T02:42:13.651Z,1005.11
2019-03-01T02:43:13.646Z,1005.11
2019-03-01T02:44:13.642Z,1005.11
2019-03-01T02:45:13.675Z,1005.10
2019-03-01T02:46:13.653Z,1005.14
2019-03-01T02:47:13.598Z,1005.14
2019-03-01T02:48:13.590Z,1005.14
2019-03-01T02:49:13.578Z,1005.16
2019-03-01T02:50:13.580Z,1005.13
2019-03-01T02:51:13.597Z,1005.13
2019-03-01T02:52:13.557Z,1005.16
2019-03-01T02:53:13.544Z,1005.15
2019-03-01T02:54:13.528Z,1005.14
2019-03-01T02:55:13.521Z,1005.10
2019-03-01T02:56:13.526Z,1005.07
2019-03-01T02:57:13.492Z,1005.04
2019-03-01T02:58:13.491Z,1005.03
2019-03-01T02:59:13.474Z,1005.02
2019-03-01T03:00:13.463Z,1005.04
2019-03-01T03:01:13.497Z,1005.09
2019-03-01T03:02:13.451Z,1005.08
2019-03-01T03:03:13.432Z,1005.04
2019-03-01T03:04:13.435Z,1005.06
2019-03-01T03:05:13.418Z,1005.06
2019-03-01T03:06:13.443Z,1005.08
2019-03-01T03:07:13.390Z,1005.06
2019-03-01T03:08:13.374Z,1005.06
2019-03-01T03:09:13.367Z,1005.09
2019-03-01T03:10:13.359Z,1005.06
2019-03-01T03:11:13.443Z,1005.02
2019-03-01T03:12:13.342Z,1004.98
2019-03-01T03:13:13.334Z,1004.99
2019-03-01T03:14:13.329Z,1005.01
2019-03-01T03:15:13.300Z,1004.99
2019-03-01T03:16:13.326Z,1004.99
2019-03-01T03:17:13.332Z,1004.98
2019-03-01T03:18:13.263Z,1005.00
2019-03-01T03:19:13.262Z,1004.96
2019-03-01T03:20:13.242Z,1005.03
2019-03-01T03:21:13.236Z,1004.99
2019-03-01T03:22:13.752Z,1005.02
2019-03-01T03:23:13.230Z,1004.99
2019-03-01T03:24:13.203Z,1004.98
2019-03-01T03:25:13.201Z,1005.01
2019-03-01T03:26:13.190Z,1005.00
2019-03-01T03:27:13.164Z,1005.02
2019-03-01T03:28:13.223Z,1005.00
2019-03-01T03:29:13.163Z,1005.04
2019-03-01T03:30:13.146Z,1005.06
2019-03-01T03:31:13.142Z,1005.06
2019-03-01T03:32:13.116Z,1005.01
2019-03-01T03:33:13.129Z,1005.02
2019-03-01T03:34:13.101Z,1004.97
2019-03-01T03:35:13.092Z,1004.96
2019-03-01T03:36:13.091Z,1004.95
2019-03-01T03:37:13.075Z,1004.96
2019-03-01T03:38:13.091Z,1004.96
2019-03-01T03:39:13.045Z,1004.98
2019-03-01T03:40:13.091Z,1004.97
2019-03-01T03:41:13.021Z,1004.99
2019-03-01T03:42:13.002Z,1004.99
2019-03-01T03:43:12.996Z,1004.99
2019-03-01T03:44:13.016Z,1004.98
2019-03-01T03:45:12.972Z,1004.98
2019-03-01T03:46:12.979Z,1004.93
2019-03-01T03:47:12.955Z,1004.97
2019-03-01T03:48:12.941Z,1004.90
2019-03-01T03:49:12.965Z,1004.90
2019-03-01T03:50:12.918Z,1004.87
2019-03-01T03:51:12.907Z,1004.89
2019-03-01T03:52:12.892Z,1004.93
2019-03-01T03:53:12.887Z,1004.93
2019-03-01T03:54:12.873Z,1004.93
2019-03-01T03:55:12.898Z,1004.93
2019-03-01T03:56:12.848Z,1004.92
2019-03-01T03:57:12.839Z,1004.91
2019-03-01T03:58:12.840Z,1004.92
2019-03-01T03:59:12.818Z,1004.87
2019-03-01T04:00:12.854Z,1004.85
2019-03-01T04:01:12.826Z,1004.75
2019-03-01T04:02:12.834Z,1004.78
2019-03-01T04:03:12.780Z,1004.77
2019-03-01T04:04:12.769Z,1004.79
2019-03-01T04:05:12.761Z,1004.71
2019-03-01T04:06:12.777Z,1004.69
2019-03-01T04:07:12.737Z,1004.69
2019-03-01T04:08:12.723Z,1004.58
2019-03-01T04:09:12.718Z,1004.62
2019-03-01T04:10:12.721Z,1004.62
2019-03-01T04:11:12.748Z,1004.61
2019-03-01T04:12:12.691Z,1004.58
2019-03-01T04:13:12.705Z,1004.58
2019-03-01T04:14:12.676Z,1004.54
2019-03-01T04:15:12.648Z,1004.55
2019-03-01T04:16:12.669Z,1004.49
2019-03-01T04:17:12.634Z,1004.48
2019-03-01T04:18:12.637Z,1004.55
2019-03-01T04:19:12.613Z,1004.60
2019-03-01T04:20:12.618Z,1004.57
2019-03-01T04:21:12.590Z,1004.59
2019-03-01T04:22:12.609Z,1004.59
2019-03-01T04:23:12.579Z,1004.51
2019-03-01T04:24:12.567Z,1004.51
2019-03-01T04:25:12.554Z,1004.52
2019-03-01T04:26:12.546Z,1004.49
2019-03-01T04:27:12.567Z,1004.42
2019-03-01T04:28:12.511Z,1004.38
2019-03-01T04:29:12.500Z,1004.38
2019-03-01T04:30:12.500Z,1004.38
2019-03-01T04:31:12.493Z,1004.36
2019-03-01T04:32:12.469Z,1004.36
2019-03-01T04:33:12.491Z,1004.37
2019-03-01T04:34:12.445Z,1004.39
2019-03-01T04:35:12.435Z,1004.42
2019-03-01T04:36:12.434Z,1004.43
2019-03-01T04:37:12.464Z,1004.37
2019-03-01T04:38:12.435Z,1004.35
2019-03-01T04:39:12.391Z,1004.33
2019-03-01T04:40:12.384Z,1004.32
2019-03-01T04:41:12.370Z,1004.29
2019-03-01T04:42:12.376Z,1004.24
2019-03-01T04:43:12.391Z,1004.23
2019-03-01T04:44:12.340Z,1004.20
2019-03-01T04:45:12.336Z,1004.16
2019-03-01T04:46:12.317Z,1004.16
2019-03-01T04:47:12.308Z,1004.18
2019-03-01T04:48:12.296Z,1004.12
2019-03-01T04:49:12.311Z,1004.13
2019-03-01T04:50:12.281Z,1004.12
2019-03-01T04:51:12.277Z,1004.14
2019-03-01T04:52:12.256Z,1004.08
2019-03-01T04:53:12.271Z,1004.04
2019-03-01T04:54:12.248Z,1003.99
2019-03-01T04:55:12.268Z,1003.97
2019-03-01T04:56:12.212Z,1004.02
2019-03-01T04:57:12.202Z,1004.01
2019-03-01T04:58:12.183Z,1003.98
2019-03-01T04:59:12.205Z,1003.94
2019-03-01T05:00:12.161Z,1004.00
2019-03-01T05:01:12.158Z,1004.02
2019-03-01T05:02:12.157Z,1004.05
2019-03-01T05:03:12.135Z,1004.03
2019-03-01T05:04:12.274Z,1004.00
2019-03-01T05:05:12.153Z,1003.95
2019-03-01T05:06:12.093Z,1003.96
2019-03-01T05:07:12.093Z,1003.97
2019-03-01T05:08:12.086Z,1003.98
2019-03-01T05:09:12.076Z,1003.97
2019-03-01T05:10:12.121Z,1003.99
2019-03-01T05:11:12.058Z,1004.04
2019-03-01T05:12:12.032Z,1004.02
2019-03-01T05:13:12.033Z,1004.02
2019-03-01T05:14:12.021Z,1003.99
2019-03-01T05:15:12.039Z,1003.99
2019-03-01T05:16:11.995Z,1003.98
2019-03-01T05:17:11.990Z,1003.97
2019-03-01T05:18:11.967Z,1003.97
2019-03-01T05:19:11.963Z,1003.94
2019-03-01T05:20:11.981Z,1003.93
2019-03-01T05:21:11.947Z,1003.92
2019-03-01T05:22:11.931Z,1003.91
2019-03-01T05:23:11.921Z,1003.95
2019-03-01T05:24:11.906Z,1003.98
2019-03-01T05:25:11.940Z,1004.01
2019-03-01T05:26:11.883Z,1003.97
2019-03-01T05:27:11.898Z,1004.00
2019-03-01T05:28:11.859Z,1004.01
2019-03-01T05:29:11.855Z,1003.99
2019-03-01T05:30:11.831Z,1004.04
2019-03-01T05:31:11.819Z,1004.04
2019-03-01T05:32:11.806Z,1004.05
2019-03-01T05:33:11.835Z,1004.11
2019-03-01T05:34:11.793Z,1004.15
2019-03-01T05:35:11.912Z,1004.17
2019-03-01T05:36:11.814Z,1004.13
2019-03-01T05:37:11.760Z,1004.14
2019-03-01T05:38:11.745Z,1004.17
2019-03-01T05:39:11.739Z,1004.17
2019-03-01T05:40:11.733Z,1004.20
2019-03-01T05:41:11.739Z,1004.17
2019-03-01T05:42:11.745Z,1004.17
2019-03-01T05:43:11.695Z,1004.16
2019-03-01T05:44:11.686Z,1004.18
2019-03-01T05:45:11.669Z,1004.18
2019-03-01T05:46:11.697Z,1004.15
2019-03-01T05:47:11.654Z,1004.11
2019-03-01T05:48:11.669Z,1004.10
2019-03-01T05:49:11.637Z,1004.10
2019-03-01T05:50:11.620Z,1004.11
2019-03-01T05:51:11.608Z,1004.11
2019-03-01T05:52:11.630Z,1004.05
2019-03-01T05:53:11.587Z,1004.09
2019-03-01T05:54:11.579Z,1004.08
2019-03-01T05:55:11.592Z,1004.07
2019-03-01T05:56:11.596Z,1004.07
2019-03-01T05:57:11.542Z,1004.08
2019-03-01T05:58:16.542Z,1004.08
2019-03-01T05:59:12.527Z,1004.07
2019-03-01T06:00:11.513Z,1004.06
2019-03-01T06:01:11.503Z,1004.06
2019-03-01T06:02:11.488Z,1004.05
2019-03-01T06:03:11.511Z,1004.05
2019-03-01T06:04:11.470Z,1004.09
2019-03-01T06:05:11.454Z,1004.10
2019-03-01T06:06:11.450Z,1004.08
2019-03-01T06:07:11.443Z,1004.09
2019-03-01T06:08:11.450Z,1004.05
2019-03-01T06:09:11.459Z,1004.04
2019-03-01T06:10:11.419Z,1004.05
2019-03-01T06:11:11.428Z,1004.04
2019-03-01T06:12:11.383Z,1004.04
2019-03-01T06:13:11.375Z,1004.05
2019-03-01T06:14:11.362Z,1004.01
2019-03-01T06:15:11.382Z,1004.06
2019-03-01T06:16:11.346Z,1004.04
2019-03-01T06:17:11.324Z,1004.05
2019-03-01T06:18:11.324Z,1004.07
2019-03-01T06:19:11.344Z,1004.05
2019-03-01T06:20:11.303Z,1004.10
2019-03-01T06:21:11.298Z,1004.08
2019-03-01T06:22:11.277Z,1004.06
2019-03-01T06:23:11.262Z,1004.08
2019-03-01T06:24:11.252Z,1004.06
2019-03-01T06:25:11.287Z,1004.01
2019-03-01T06:26:11.247Z,1004.01
2019-03-01T06:27:11.239Z,1004.04
2019-03-01T06:28:11.212Z,1004.00
2019-03-01T06:29:11.228Z,1003.96
2019-03-01T06:30:11.188Z,1003.99
2019-03-01T06:31:11.243Z,1003.98
2019-03-01T06:32:11.175Z,1004.01
2019-03-01T06:33:11.161Z,1004.02
2019-03-01T06:34:11.155Z,1004.03
2019-03-01T06:35:11.139Z,1004.08
2019-03-01T06:36:11.122Z,1004.10
2019-03-01T06:37:11.140Z,1004.17
2019-03-01T06:38:11.117Z,1004.18
2019-03-01T06:39:11.099Z,1004.22
2019-03-01T06:40:11.116Z,1004.19
2019-03-01T06:41:11.123Z,1004.23
2019-03-01T06:42:11.078Z,1004.24
2019-03-01T06:43:11.048Z,1004.23
2019-03-01T06:44:11.053Z,1004.18
2019-03-01T06:45:11.035Z,1004.21
2019-03-01T06:46:11.080Z,1004.24
2019-03-01T06:47:11.003Z,1004.26
2019-03-01T06:48:10.996Z,1004.27
2019-03-01T06:49:10.982Z,1004.27
2019-03-01T06:50:13.028Z,1004.32
2019-03-01T06:51:10.982Z,1004.31
2019-03-01T06:52:11.016Z,1004.38
2019-03-01T06:53:10.991Z,1004.37
2019-03-01T06:54:10.930Z,1004.37
2019-03-01T06:55:10.917Z,1004.39
2019-03-01T06:56:10.918Z,1004.43
2019-03-01T06:57:10.917Z,1004.40
2019-03-01T06:58:10.892Z,1004.37
2019-03-01T06:59:10.908Z,1004.39
2019-03-01T07:00:10.892Z,1004.40
2019-03-01T07:01:10.855Z,1004.41
2019-03-01T07:02:10.850Z,1004.43
2019-03-01T07:03:10.870Z,1004.44
2019-03-01T07:04:10.876Z,1004.41
2019-03-01T07:05:10.831Z,1004.39
2019-03-01T07:06:10.868Z,1004.40
2019-03-01T07:07:10.792Z,1004.40
2019-03-01T07:08:10.789Z,1004.43
2019-03-01T07:09:10.801Z,1004.42
2019-03-01T07:10:10.756Z,1004.39
2019-03-01T07:11:10.751Z,1004.40
2019-03-01T07:12:10.752Z,1004.40
2019-03-01T07:13:10.736Z,1004.39
2019-03-01T07:14:10.745Z,1004.35
2019-03-01T07:15:10.703Z,1004.33
2019-03-01T07:16:11.260Z,1004.33
2019-03-01T07:17:10.743Z,1004.32
2019-03-01T07:18:10.675Z,1004.34
2019-03-01T07:19:10.659Z,1004.33
2019-03-01T07:20:12.637Z,1004.36
2019-03-01T07:21:10.635Z,1004.38
2019-03-01T07:22:10.631Z,1004.40
2019-03-01T07:23:10.628Z,1004.40
2019-03-01T07:24:10.694Z,1004.41
2019-03-01T07:25:10.630Z,1004.44
2019-03-01T07:26:10.578Z,1004.42
2019-03-01T07:27:12.273Z,1004.46
2019-03-01T07:28:10.565Z,1004.44
2019-03-01T07:29:10.561Z,1004.44
2019-03-01T07:30:10.579Z,1004.48
2019-03-01T07:31:10.536Z,1004.49
2019-03-01T07:32:10.513Z,1004.52
2019-03-01T07:33:10.554Z,1004.47
2019-03-01T07:34:10.514Z,1004.45
2019-03-01T07:35:10.494Z,1004.46
2019-03-01T07:36:10.512Z,1004.46
2019-03-01T07:37:10.498Z,1004.44
2019-03-01T07:38:10.462Z,1004.43
2019-03-01T07:39:10.437Z,1004.46
2019-03-01T07:40:10.437Z,1004.41
2019-03-01T07:41:10.444Z,1004.44
2019-03-01T07:42:10.453Z,1004.43
2019-03-01T07:43:10.405Z,1004.47
2019-03-01T07:44:10.430Z,1004.46
2019-03-01T07:45:10.381Z,1004.44
2019-03-01T07:46:10.365Z,1004.44
2019-03-01T07:47:10.389Z,1004.46
2019-03-01T07:48:10.363Z,1004.51
2019-03-01T07:49:10.342Z,1004.47
2019-03-01T07:50:10.446Z,1004.44
2019-03-01T07:51:10.357Z,1004.41
2019-03-01T07:52:10.305Z,1004.41
2019-03-01T07:53:10.325Z,1004.38
2019-03-01T07:54:13.298Z,1004.37
2019-03-01T07:55:11.276Z,1004.42
2019-03-01T07:56:10.292Z,1004.40
2019-03-01T07:57:11.425Z,1004.39
2019-03-01T07:58:10.238Z,1004.40
2019-03-01T07:59:10.224Z,1004.42
2019-03-01T08:00:10.860Z,1004.36
2019-03-01T08:01:10.212Z,1004.39
2019-03-01T08:02:10.201Z,1004.42
2019-03-01T08:03:11.972Z,1004.44
2019-03-01T08:04:10.182Z,1004.41
2019-03-01T08:05:10.187Z,1004.47
2019-03-01T08:06:13.054Z,1004.42
2019-03-01T08:07:10.147Z,1004.40
2019-03-01T08:08:10.155Z,1004.38
2019-03-01T08:09:10.118Z,1004.40
2019-03-01T08:10:10.103Z,1004.45
2019-03-01T08:11:10.116Z,1004.48
2019-03-01T08:12:10.090Z,1004.50
2019-03-01T08:13:10.095Z,1004.45
2019-03-01T08:14:10.349Z,1004.48
2019-03-01T08:15:10.061Z,1004.49
2019-03-01T08:16:10.047Z,1004.45
2019-03-01T08:17:10.043Z,1004.44
2019-03-01T08:18:10.060Z,1004.42
2019-03-01T08:19:10.030Z,1004.42
2019-03-01T08:20:10.008Z,1004.35
2019-03-01T08:21:10.384Z,1004.37
2019-03-01T08:22:09.973Z,1004.32
2019-03-01T08:23:09.963Z,1004.28
2019-03-01T08:24:10.962Z,1004.37
2019-03-01T08:25:23.496Z,1004.37
2019-03-01T08:26:10.933Z,1004.36
2019-03-01T08:27:11.126Z,1004.33
2019-03-01T08:28:09.902Z,1004.32
2019-03-01T08:29:18.502Z,1004.36
2019-03-01T08:30:10.504Z,1004.40
2019-03-01T08:31:09.982Z,1004.38
2019-03-01T08:32:09.876Z,1004.39
2019-03-01T08:33:09.853Z,1004.43
2019-03-01T08:34:09.844Z,1004.43
2019-03-01T08:35:09.868Z,1004.36
2019-03-01T08:36:09.831Z,1004.34
2019-03-01T08:37:09.823Z,1004.32
2019-03-01T08:38:09.801Z,1004.32
2019-03-01T08:39:09.789Z,1004.35
2019-03-01T08:40:11.456Z,1004.33
2019-03-01T08:41:09.770Z,1004.35
2019-03-01T08:42:09.768Z,1004.35
2019-03-01T08:43:13.022Z,1004.30
2019-03-01T08:44:09.749Z,1004.28
2019-03-01T08:45:09.732Z,1004.35
2019-03-01T08:46:10.461Z,1004.33
2019-03-01T08:47:09.710Z,1004.36
2019-03-01T08:48:09.701Z,1004.33
2019-03-01T08:49:10.524Z,1004.33
2019-03-01T08:50:09.685Z,1004.35
2019-03-01T08:51:09.693Z,1004.38
2019-03-01T08:52:09.648Z,1004.38
2019-03-01T08:53:11.518Z,1004.46
2019-03-01T08:54:10.638Z,1004.44
2019-03-01T08:55:09.629Z,1004.42
2019-03-01T08:56:10.927Z,1004.41
2019-03-01T08:57:09.604Z,1004.47
2019-03-01T08:58:09.584Z,1004.48
2019-03-01T08:59:09.579Z,1004.48
2019-03-01T09:00:09.572Z,1004.53
2019-03-01T09:01:09.784Z,1004.49
2019-03-01T09:02:09.579Z,1004.51
2019-03-01T09:03:09.552Z,1004.49
2019-03-01T09:04:09.535Z,1004.50
2019-03-01T09:05:09.885Z,1004.50
2019-03-01T09:06:09.595Z,1004.48
2019-03-01T09:07:09.506Z,1004.53
2019-03-01T09:08:09.485Z,1004.49
2019-03-01T09:09:09.480Z,1004.51
2019-03-01T09:10:09.457Z,1004.48
2019-03-01T09:11:10.418Z,1004.55
2019-03-01T09:12:09.463Z,1004.55
2019-03-01T09:13:09.444Z,1004.57
2019-03-01T09:14:09.417Z,1004.57
2019-03-01T09:15:09.418Z,1004.59
2019-03-01T09:16:09.406Z,1004.59
2019-03-01T09:17:09.391Z,1004.64
2019-03-01T09:18:11.574Z,1004.69
2019-03-01T09:19:09.404Z,1004.64
2019-03-01T09:20:09.358Z,1004.75
2019-03-01T09:21:12.276Z,1004.73
2019-03-01T09:22:09.330Z,1004.67
2019-03-01T09:23:21.207Z,1004.69
2019-03-01T09:24:10.347Z,1004.69
2019-03-01T09:25:09.290Z,1004.64
2019-03-01T09:26:09.351Z,1004.63
2019-03-01T09:27:09.332Z,1004.63
2019-03-01T09:28:09.264Z,1004.61
2019-03-01T09:29:09.299Z,1004.55
2019-03-01T09:30:09.242Z,1004.57
2019-03-01T09:31:09.733Z,1004.55
2019-03-01T09:32:09.220Z,1004.53
2019-03-01T09:33:09.266Z,1004.56
2019-03-01T09:34:09.387Z,1004.53
2019-03-01T09:35:09.258Z,1004.55
2019-03-01T09:36:09.219Z,1004.55
2019-03-01T09:37:09.171Z,1004.56
2019-03-01T09:38:11.251Z,1004.56
2019-03-01T09:39:09.179Z,1004.62
2019-03-01T09:40:09.249Z,1004.62
2019-03-01T09:41:09.309Z,1004.63
2019-03-01T09:42:12.414Z,1004.64
2019-03-01T09:43:10.265Z,1004.74
2019-03-01T09:44:09.577Z,1004.76
2019-03-01T09:45:10.458Z,1004.74
2019-03-01T09:46:10.739Z,1004.75
2019-03-01T09:47:09.165Z,1004.74
2019-03-01T09:48:12.198Z,1004.74
2019-03-01T09:49:09.233Z,1004.69
2019-03-01T09:50:09.115Z,1004.65
2019-03-01T09:51:10.603Z,1004.65
2019-03-01T09:52:09.033Z,1004.66
2019-03-01T09:53:09.767Z,1004.70
2019-03-01T09:54:09.418Z,1004.64
2019-03-01T09:55:09.022Z,1004.66
2019-03-01T09:56:09.689Z,1004.63
2019-03-01T09:57:08.953Z,1004.68
2019-03-01T09:58:08.947Z,1004.65
2019-03-01T09:59:09.001Z,1004.64
2019-03-01T10:00:08.929Z,1004.65
2019-03-01T10:01:08.944Z,1004.67
2019-03-01T10:02:08.911Z,1004.65
2019-03-01T10:03:08.910Z,1004.64
2019-03-01T10:04:08.923Z,1004.65
2019-03-01T10:05:08.860Z,1004.65
2019-03-01T10:06:08.891Z,1004.65
2019-03-01T10:07:08.916Z,1004.68
2019-03-01T10:08:08.843Z,1004.69
2019-03-01T10:09:08.920Z,1004.74
2019-03-01T10:10:08.849Z,1004.71
2019-03-01T10:11:08.853Z,1004.69
2019-03-01T10:12:08.821Z,1004.69
2019-03-01T10:13:08.822Z,1004.72
2019-03-01T10:14:08.780Z,1004.72
2019-03-01T10:15:08.870Z,1004.70
2019-03-01T10:16:08.776Z,1004.69
2019-03-01T10:17:08.771Z,1004.71
2019-03-01T10:18:08.743Z,1004.68
2019-03-01T10:19:08.752Z,1004.67
2019-03-01T10:20:08.786Z,1004.69
2019-03-01T10:21:08.800Z,1004.71
2019-03-01T10:22:08.703Z,1004.71
2019-03-01T10:23:08.711Z,1004.69
2019-03-01T10:24:08.704Z,1004.69
2019-03-01T10:25:08.697Z,1004.68
2019-03-01T10:26:08.705Z,1004.69
2019-03-01T10:27:08.627Z,1004.69
2019-03-01T10:28:08.619Z,1004.72
2019-03-01T10:29:08.602Z,1004.76
2019-03-01T10:30:08.600Z,1004.74
2019-03-01T10:31:08.624Z,1004.76
2019-03-01T10:32:08.570Z,1004.77
2019-03-01T10:33:08.565Z,1004.76
2019-03-01T10:34:08.562Z,1004.78
2019-03-01T10:35:08.547Z,1004.81
2019-03-01T10:36:08.559Z,1004.78
2019-03-01T10:37:08.546Z,1004.86
2019-03-01T10:38:08.509Z,1004.84
2019-03-01T10:39:08.532Z,1004.87
2019-03-01T10:40:08.479Z,1004.91
2019-03-01T10:41:08.470Z,1004.90
2019-03-01T10:42:08.464Z,1004.93
2019-03-01T10:43:08.454Z,1004.92
2019-03-01T10:44:08.445Z,1004.92
2019-03-01T10:45:08.461Z,1004.94
2019-03-01T10:46:08.412Z,1004.97
2019-03-01T10:47:08.409Z,1004.99
2019-03-01T10:48:08.424Z,1004.96
2019-03-01T10:49:08.384Z,1004.97
2019-03-01T10:50:08.424Z,1004.94
2019-03-01T10:51:08.379Z,1004.95
2019-03-01T10:52:08.377Z,1004.97
2019-03-01T10:53:08.355Z,1004.97
2019-03-01T10:54:08.327Z,1005.04
2019-03-01T10:55:08.415Z,1004.97
2019-03-01T10:56:08.350Z,1004.99
2019-03-01T10:57:08.298Z,1005.05
2019-03-01T10:58:08.305Z,1005.05
2019-03-01T10:59:08.279Z,1005.04
2019-03-01T11:00:08.304Z,1005.06
2019-03-01T11:01:08.349Z,1005.07
2019-03-01T11:02:08.257Z,1005.09
2019-03-01T11:03:08.265Z,1005.08
2019-03-01T11:04:08.220Z,1005.07
2019-03-01T11:05:08.215Z,1005.09
2019-03-01T11:06:08.247Z,1005.06
2019-03-01T11:07:08.196Z,1005.07
2019-03-01T11:08:08.182Z,1005.07
2019-03-01T11:09:08.168Z,1005.08
2019-03-01T11:10:08.158Z,1005.12
2019-03-01T11:11:08.185Z,1005.12
2019-03-01T11:12:08.179Z,1005.12
2019-03-01T11:13:08.141Z,1005.14
2019-03-01T11:14:08.125Z,1005.18
2019-03-01T11:15:08.106Z,1005.18
2019-03-01T11:16:08.088Z,1005.21
2019-03-01T11:17:08.117Z,1005.23
2019-03-01T11:18:08.070Z,1005.16
2019-03-01T11:19:08.097Z,1005.15
2019-03-01T11:20:08.050Z,1005.16
2019-03-01T11:21:08.117Z,1005.17
2019-03-01T11:22:08.030Z,1005.14
2019-03-01T11:23:08.030Z,1005.14
2019-03-01T11:24:08.006Z,1005.14
2019-03-01T11:25:08.001Z,1005.16
2019-03-01T11:26:08.017Z,1005.17
2019-03-01T11:27:12.811Z,1005.21
2019-03-01T11:28:10.529Z,1005.19
2019-03-01T11:29:07.981Z,1005.20
2019-03-01T11:30:07.940Z,1005.25
2019-03-01T11:31:07.923Z,1005.20
2019-03-01T11:32:07.944Z,1005.22
2019-03-01T11:33:07.908Z,1005.28
2019-03-01T11:34:07.902Z,1005.22
2019-03-01T11:35:07.880Z,1005.23
2019-03-01T11:36:07.877Z,1005.19
2019-03-01T11:37:07.912Z,1005.24
2019-03-01T11:38:07.847Z,1005.20
2019-03-01T11:39:07.836Z,1005.23
2019-03-01T11:40:07.827Z,1005.19
2019-03-01T11:41:07.816Z,1005.22
2019-03-01T11:42:07.816Z,1005.24
2019-03-01T11:43:07.833Z,1005.22
2019-03-01T11:44:07.789Z,1005.22
2019-03-01T11:45:07.769Z,1005.19
2019-03-01T11:46:07.767Z,1005.20
2019-03-01T11:47:07.766Z,1005.19
2019-03-01T11:48:07.779Z,1005.23
2019-03-01T11:49:07.735Z,1005.24
2019-03-01T11:50:07.715Z,1005.24
2019-03-01T11:51:07.706Z,1005.23
2019-03-01T11:52:07.698Z,1005.27
2019-03-01T11:53:07.708Z,1005.24
2019-03-01T11:54:15.836Z,1005.29
2019-03-01T11:55:07.664Z,1005.30
2019-03-01T11:56:07.645Z,1005.28
2019-03-01T11:57:07.634Z,1005.32
2019-03-01T11:58:07.681Z,1005.31
2019-03-01T11:59:07.616Z,1005.29
2019-03-01T12:00:07.604Z,1005.34
2019-03-01T12:01:16.701Z,1005.30
2019-03-01T12:02:08.576Z,1005.32
2019-03-01T12:03:07.567Z,1005.37
2019-03-01T12:04:07.603Z,1005.32
2019-03-01T12:05:07.552Z,1005.35